createdAt,value
2023-05-31T00:00:18.184Z,1017.15
2023-05-31T00:01:18.177Z,1017.14
2023-05-31T00:02:18.491Z,1017.15
2023-05-31T00:03:18.151Z,1017.13
2023-05-31T00:04:18.109Z,1017.17
2023-05-31T00:05:18.108Z,1017.14
2023-05-31T00:06:18.095Z,1017.16
2023-05-31T00:07:18.081Z,1017.12
2023-05-31T00:08:18.077Z,1017.14
2023-05-31T00:09:18.054Z,1017.14
2023-05-31T00:10:18.059Z,1017.15
2023-05-31T00:11:18.048Z,1017.17
2023-05-31T00:12:18.024Z,1017.15
2023-05-31T00:13:18.027Z,1017.17
2023-05-31T00:14:18.002Z,1017.14
2023-05-31T00:15:18.003Z,1017.20
2023-05-31T00:16:46.370Z,1017.20
2023-05-31T00:18:18.026Z,1017.23
2023-05-31T00:19:18.013Z,1017.22
2023-05-31T00:20:17.999Z,1017.28
2023-05-31T00:21:17.920Z,1017.27
2023-05-31T00:22:17.938Z,1017.24
2023-05-31T00:23:17.904Z,1017.23
2023-05-31T00:24:17.913Z,1017.22
2023-05-31T00:25:17.918Z,1017.19
2023-05-31T00:26:17.939Z,1017.15
2023-05-31T00:27:17.867Z,1017.18
2023-05-31T00:28:17.904Z,1017.17
2023-05-31T00:29:17.858Z,1017.20
2023-05-31T00:30:17.830Z,1017.18
2023-05-31T00:31:17.858Z,1017.19
2023-05-31T00:32:17.807Z,1017.17
2023-05-31T00:33:17.792Z,1017.18
2023-05-31T00:34:17.811Z,1017.21
2023-05-31T00:35:17.780Z,1017.17
2023-05-31T00:36:17.765Z,1017.20
2023-05-31T00:37:17.768Z,1017.20
2023-05-31T00:38:17.980Z,1017.18
2023-05-31T00:39:17.736Z,1017.17
2023-05-31T00:40:17.717Z,1017.15
2023-05-31T00:41:17.716Z,1017.15
2023-05-31T00:42:17.696Z,1017.18
2023-05-31T00:43:17.698Z,1017.14
2023-05-31T00:44:17.671Z,1017.16
2023-05-31T00:45:17.672Z,1017.18
2023-05-31T00:46:17.647Z,1017.15
2023-05-31T00:47:17.707Z,1017.20
2023-05-31T00:48:17.850Z,1017.18
2023-05-31T00:49:17.621Z,1017.19
2023-05-31T00:50:17.617Z,1017.19
2023-05-31T00:51:17.597Z,1017.22
2023-05-31T00:52:17.673Z,1017.23
2023-05-31T00:53:17.577Z,1017.23
2023-05-31T00:54:17.558Z,1017.21
2023-05-31T00:55:17.559Z,1017.23
2023-05-31T00:56:17.559Z,1017.27
2023-05-31T00:57:17.545Z,1017.27
2023-05-31T00:58:17.539Z,1017.27
2023-05-31T00:59:17.513Z,1017.27
2023-05-31T01:00:17.508Z,1017.26
2023-05-31T01:01:17.535Z,1017.26
2023-05-31T01:02:17.606Z,1017.27
2023-05-31T01:03:17.491Z,1017.29
2023-05-31T01:04:17.480Z,1017.29
2023-05-31T01:05:17.445Z,1017.30
2023-05-31T01:06:17.442Z,1017.26
2023-05-31T01:07:17.429Z,1017.27
2023-05-31T01:08:17.412Z,1017.27
2023-05-31T01:09:17.411Z,1017.29
2023-05-31T01:10:17.383Z,1017.29
2023-05-31T01:11:17.425Z,1017.25
2023-05-31T01:12:17.372Z,1017.26
2023-05-31T01:13:17.356Z,1017.27
2023-05-31T01:14:17.363Z,1017.26
2023-05-31T01:15:17.352Z,1017.26
2023-05-31T01:16:17.369Z,1017.24
2023-05-31T01:17:17.307Z,1017.25
2023-05-31T01:18:17.292Z,1017.26
2023-05-31T01:19:17.288Z,1017.25
2023-05-31T01:20:17.302Z,1017.24
2023-05-31T01:21:17.260Z,1017.23
2023-05-31T01:22:17.242Z,1017.21
2023-05-31T01:23:17.240Z,1017.24
2023-05-31T01:24:17.231Z,1017.26
2023-05-31T01:25:17.249Z,1017.24
2023-05-31T01:26:17.207Z,1017.27
2023-05-31T01:27:17.225Z,1017.30
2023-05-31T01:28:17.182Z,1017.28
2023-05-31T01:29:17.168Z,1017.23
2023-05-31T01:30:17.176Z,1017.26
2023-05-31T01:31:17.182Z,1017.26
2023-05-31T01:32:17.136Z,1017.27
2023-05-31T01:33:17.133Z,1017.25
2023-05-31T01:34:17.127Z,1017.25
2023-05-31T01:35:17.141Z,1017.20
2023-05-31T01:36:17.092Z,1017.19
2023-05-31T01:37:17.108Z,1017.23
2023-05-31T01:38:17.079Z,1017.21
2023-05-31T01:39:17.084Z,1017.23
2023-05-31T01:40:17.076Z,1017.19
2023-05-31T01:41:17.057Z,1017.22
2023-05-31T01:42:17.024Z,1017.21
2023-05-31T01:43:17.033Z,1017.23
2023-05-31T01:44:17.018Z,1017.18
2023-05-31T01:45:17.020Z,1017.21
2023-05-31T01:46:17.106Z,1017.23
2023-05-31T01:47:16.984Z,1017.25
2023-05-31T01:48:16.977Z,1017.22
2023-05-31T01:49:16.983Z,1017.27
2023-05-31T01:50:16.947Z,1017.26
2023-05-31T01:51:16.932Z,1017.24
2023-05-31T01:52:16.917Z,1017.20
2023-05-31T01:53:16.926Z,1017.24
2023-05-31T01:54:16.937Z,1017.25
2023-05-31T01:55:16.894Z,1017.23
2023-05-31T01:56:16.886Z,1017.21
2023-05-31T01:57:16.888Z,1017.22
2023-05-31T01:58:16.865Z,1017.23
2023-05-31T01:59:16.897Z,1017.23
2023-05-31T02:00:16.883Z,1017.25
2023-05-31T02:01:16.848Z,1017.23
2023-05-31T02:02:16.820Z,1017.22
2023-05-31T02:03:16.823Z,1017.24
2023-05-31T02:04:16.832Z,1017.24
2023-05-31T02:05:16.808Z,1017.24
2023-05-31T02:06:16.763Z,1017.26
2023-05-31T02:07:16.771Z,1017.23
2023-05-31T02:08:16.745Z,1017.22
2023-05-31T02:09:16.731Z,1017.20
2023-05-31T02:10:16.725Z,1017.20
2023-05-31T02:11:16.732Z,1017.19
2023-05-31T02:12:16.715Z,1017.19
2023-05-31T02:13:16.693Z,1017.19
2023-05-31T02:14:16.688Z,1017.23
2023-05-31T02:15:16.667Z,1017.20
2023-05-31T02:16:16.684Z,1017.21
2023-05-31T02:17:16.650Z,1017.21
2023-05-31T02:18:16.629Z,1017.22
2023-05-31T02:19:16.634Z,1017.25
2023-05-31T02:20:16.682Z,1017.19
2023-05-31T02:21:16.605Z,1017.23
2023-05-31T02:22:16.615Z,1017.23
2023-05-31T02:23:16.575Z,1017.25
2023-05-31T02:24:16.602Z,1017.25
2023-05-31T02:25:16.821Z,1017.26
2023-05-31T02:26:16.562Z,1017.26
2023-05-31T02:27:16.536Z,1017.26
2023-05-31T02:28:16.527Z,1017.22
2023-05-31T02:29:16.511Z,1017.22
2023-05-31T02:30:16.522Z,1017.20
2023-05-31T02:31:16.553Z,1017.26
2023-05-31T02:32:16.489Z,1017.25
2023-05-31T02:33:16.487Z,1017.31
2023-05-31T02:34:16.471Z,1017.30
2023-05-31T02:35:16.458Z,1017.31
2023-05-31T02:36:16.453Z,1017.31
2023-05-31T02:37:16.417Z,1017.33
2023-05-31T02:38:16.429Z,1017.36
2023-05-31T02:39:16.418Z,1017.32
2023-05-31T02:40:16.408Z,1017.31
2023-05-31T02:41:16.405Z,1017.35
2023-05-31T02:42:16.359Z,1017.31
2023-05-31T02:43:16.358Z,1017.31
2023-05-31T02:44:16.386Z,1017.31
2023-05-31T02:45:16.323Z,1017.30
2023-05-31T02:46:16.367Z,1017.31
2023-05-31T02:47:16.310Z,1017.29
2023-05-31T02:48:16.292Z,1017.29
2023-05-31T02:49:16.298Z,1017.27
2023-05-31T02:50:16.301Z,1017.28
2023-05-31T02:51:16.260Z,1017.24
2023-05-31T02:52:16.255Z,1017.23
2023-05-31T02:53:16.261Z,1017.20
2023-05-31T02:54:16.270Z,1017.19
2023-05-31T02:55:16.218Z,1017.21
2023-05-31T02:56:16.216Z,1017.27
2023-05-31T02:57:16.190Z,1017.20
2023-05-31T02:58:16.250Z,1017.18
2023-05-31T02:59:16.201Z,1017.19
2023-05-31T03:00:16.169Z,1017.15
2023-05-31T03:01:16.164Z,1017.18
2023-05-31T03:02:16.234Z,1017.20
2023-05-31T03:03:16.236Z,1017.18
2023-05-31T03:04:16.133Z,1017.23
2023-05-31T03:05:16.105Z,1017.24
2023-05-31T03:06:16.099Z,1017.23
2023-05-31T03:07:16.126Z,1017.25
2023-05-31T03:08:16.131Z,1017.27
2023-05-31T03:09:16.064Z,1017.23
2023-05-31T03:10:16.051Z,1017.27
2023-05-31T03:11:16.053Z,1017.26
2023-05-31T03:12:16.061Z,1017.27
2023-05-31T03:13:16.029Z,1017.31
2023-05-31T03:14:16.013Z,1017.33
2023-05-31T03:15:15.996Z,1017.28
2023-05-31T03:16:16.017Z,1017.30
2023-05-31T03:17:15.995Z,1017.31
2023-05-31T03:18:15.972Z,1017.29
2023-05-31T03:19:15.955Z,1017.31
2023-05-31T03:20:15.983Z,1017.33
2023-05-31T03:21:15.953Z,1017.30
2023-05-31T03:22:15.945Z,1017.30
2023-05-31T03:23:15.907Z,1017.30
2023-05-31T03:24:15.925Z,1017.33
2023-05-31T03:25:15.947Z,1017.33
2023-05-31T03:26:15.919Z,1017.29
2023-05-31T03:27:15.857Z,1017.32
2023-05-31T03:28:15.892Z,1017.35
2023-05-31T03:29:15.849Z,1017.32
2023-05-31T03:30:15.845Z,1017.33
2023-05-31T03:31:15.847Z,1017.30
2023-05-31T03:32:15.816Z,1017.28
2023-05-31T03:33:15.842Z,1017.23
2023-05-31T03:34:15.798Z,1017.27
2023-05-31T03:35:15.814Z,1017.25
2023-05-31T03:36:15.780Z,1017.27
2023-05-31T03:37:15.760Z,1017.25
2023-05-31T03:38:15.740Z,1017.26
2023-05-31T03:39:15.724Z,1017.28
2023-05-31T03:40:15.766Z,1017.28
2023-05-31T03:41:15.706Z,1017.24
2023-05-31T03:42:15.786Z,1017.26
2023-05-31T03:43:15.686Z,1017.24
2023-05-31T03:44:15.693Z,1017.22
2023-05-31T03:45:15.738Z,1017.23
2023-05-31T03:46:15.716Z,1017.25
2023-05-31T03:47:15.728Z,1017.24
2023-05-31T03:48:15.632Z,1017.26
2023-05-31T03:49:15.635Z,1017.24
2023-05-31T03:50:15.630Z,1017.25
2023-05-31T03:51:15.598Z,1017.23
2023-05-31T03:52:15.589Z,1017.25
2023-05-31T03:53:15.592Z,1017.24
2023-05-31T03:54:15.652Z,1017.25
2023-05-31T03:55:15.576Z,1017.26
2023-05-31T03:56:15.541Z,1017.26
2023-05-31T03:57:15.534Z,1017.28
2023-05-31T03:58:15.614Z,1017.20
2023-05-31T03:59:15.523Z,1017.23
2023-05-31T04:00:15.513Z,1017.23
2023-05-31T04:01:15.502Z,1017.22
2023-05-31T04:02:15.513Z,1017.20
2023-05-31T04:03:15.607Z,1017.21
2023-05-31T04:04:15.810Z,1017.20
2023-05-31T04:05:15.536Z,1017.24
2023-05-31T04:06:15.437Z,1017.24
2023-05-31T04:07:15.435Z,1017.26
2023-05-31T04:08:15.486Z,1017.29
2023-05-31T04:09:15.401Z,1017.28
2023-05-31T04:10:15.409Z,1017.27
2023-05-31T04:11:15.382Z,1017.32
2023-05-31T04:12:15.364Z,1017.36
2023-05-31T04:13:15.386Z,1017.35
2023-05-31T04:14:15.391Z,1017.40
2023-05-31T04:15:15.336Z,1017.39
2023-05-31T04:16:15.377Z,1017.42
2023-05-31T04:17:15.338Z,1017.38
2023-05-31T04:18:15.311Z,1017.41
2023-05-31T04:19:15.643Z,1017.39
2023-05-31T04:20:15.361Z,1017.40
2023-05-31T04:21:15.266Z,1017.37
2023-05-31T04:22:15.269Z,1017.36
2023-05-31T04:23:15.247Z,1017.37
2023-05-31T04:24:15.305Z,1017.35
2023-05-31T04:25:15.228Z,1017.33
2023-05-31T04:26:15.209Z,1017.33
2023-05-31T04:27:15.212Z,1017.33
2023-05-31T04:28:15.183Z,1017.34
2023-05-31T04:29:15.179Z,1017.36
2023-05-31T04:30:15.294Z,1017.35
2023-05-31T04:31:15.434Z,1017.37
2023-05-31T04:32:15.238Z,1017.36
2023-05-31T04:33:15.162Z,1017.37
2023-05-31T04:34:15.135Z,1017.37
2023-05-31T04:35:15.113Z,1017.39
2023-05-31T04:36:15.119Z,1017.40
2023-05-31T04:37:15.106Z,1017.39
2023-05-31T04:38:15.082Z,1017.35
2023-05-31T04:39:15.062Z,1017.34
2023-05-31T04:40:15.103Z,1017.34
2023-05-31T04:41:15.532Z,1017.34
2023-05-31T04:42:15.065Z,1017.35
2023-05-31T04:43:15.031Z,1017.33
2023-05-31T04:44:15.010Z,1017.36
2023-05-31T04:45:15.025Z,1017.34
2023-05-31T04:46:15.085Z,1017.36
2023-05-31T04:47:15.004Z,1017.33
2023-05-31T04:48:14.962Z,1017.39
2023-05-31T04:49:14.963Z,1017.37
2023-05-31T04:50:14.972Z,1017.36
2023-05-31T04:51:14.940Z,1017.36
2023-05-31T04:52:14.927Z,1017.33
2023-05-31T04:53:14.913Z,1017.38
2023-05-31T04:54:14.909Z,1017.33
2023-05-31T04:55:14.915Z,1017.38
2023-05-31T04:56:14.885Z,1017.30
2023-05-31T04:57:14.866Z,1017.37
2023-05-31T04:58:14.860Z,1017.34
2023-05-31T04:59:14.861Z,1017.35
2023-05-31T05:00:14.847Z,1017.38
2023-05-31T05:01:14.855Z,1017.37
2023-05-31T05:02:14.842Z,1017.37
2023-05-31T05:03:14.921Z,1017.37
2023-05-31T05:04:14.877Z,1017.38
2023-05-31T05:05:14.787Z,1017.44
2023-05-31T05:06:14.814Z,1017.42
2023-05-31T05:07:14.758Z,1017.44
2023-05-31T05:08:14.807Z,1017.42
2023-05-31T05:09:14.756Z,1017.43
2023-05-31T05:10:14.865Z,1017.40
2023-05-31T05:11:14.719Z,1017.45
2023-05-31T05:12:14.706Z,1017.44
2023-05-31T05:13:14.730Z,1017.36
2023-05-31T05:14:14.681Z,1017.38
2023-05-31T05:15:14.666Z,1017.39
2023-05-31T05:16:14.655Z,1017.40
2023-05-31T05:17:14.741Z,1017.40
2023-05-31T05:18:14.727Z,1017.42
2023-05-31T05:19:14.622Z,1017.42
2023-05-31T05:20:14.655Z,1017.43
2023-05-31T05:21:14.598Z,1017.42
2023-05-31T05:22:14.606Z,1017.41
2023-05-31T05:23:14.590Z,1017.43
2023-05-31T05:24:14.589Z,1017.42
2023-05-31T05:25:14.559Z,1017.44
2023-05-31T05:26:14.564Z,1017.43
2023-05-31T05:27:14.543Z,1017.43
2023-05-31T05:28:14.544Z,1017.42
2023-05-31T05:29:14.507Z,1017.43
2023-05-31T05:30:14.511Z,1017.40
2023-05-31T05:31:14.540Z,1017.41
2023-05-31T05:32:14.848Z,1017.39
2023-05-31T05:33:14.490Z,1017.38
2023-05-31T05:34:14.464Z,1017.36
2023-05-31T05:35:14.447Z,1017.40
2023-05-31T05:36:14.487Z,1017.40
2023-05-31T05:37:14.433Z,1017.40
2023-05-31T05:38:14.500Z,1017.41
2023-05-31T05:39:14.400Z,1017.39
2023-05-31T05:40:14.442Z,1017.33
2023-05-31T05:41:14.529Z,1017.38
2023-05-31T05:42:14.426Z,1017.36
2023-05-31T05:43:14.362Z,1017.35
2023-05-31T05:44:14.406Z,1017.35
2023-05-31T05:45:14.341Z,1017.29
2023-05-31T05:46:14.432Z,1017.31
2023-05-31T05:47:14.326Z,1017.32
2023-05-31T05:48:14.308Z,1017.33
2023-05-31T05:49:14.292Z,1017.35
2023-05-31T05:50:14.322Z,1017.32
2023-05-31T05:51:14.259Z,1017.35
2023-05-31T05:52:14.331Z,1017.30
2023-05-31T05:53:14.253Z,1017.32
2023-05-31T05:54:14.250Z,1017.33
2023-05-31T05:55:14.238Z,1017.33
2023-05-31T05:56:14.266Z,1017.36
2023-05-31T05:57:14.197Z,1017.37
2023-05-31T05:58:14.196Z,1017.36
2023-05-31T05:59:14.231Z,1017.38
2023-05-31T06:00:14.237Z,1017.36
2023-05-31T06:01:14.156Z,1017.33
2023-05-31T06:02:14.209Z,1017.31
2023-05-31T06:03:14.255Z,1017.37
2023-05-31T06:04:14.133Z,1017.32
2023-05-31T06:05:14.129Z,1017.29
2023-05-31T06:06:14.148Z,1017.32
2023-05-31T06:07:14.090Z,1017.33
2023-05-31T06:08:14.089Z,1017.37
2023-05-31T06:09:14.099Z,1017.33
2023-05-31T06:10:14.055Z,1017.34
2023-05-31T06:11:14.044Z,1017.34
2023-05-31T06:12:14.056Z,1017.31
2023-05-31T06:13:14.020Z,1017.31
2023-05-31T06:14:14.086Z,1017.34
2023-05-31T06:15:13.997Z,1017.34
2023-05-31T06:16:14.004Z,1017.36
2023-05-31T06:17:13.982Z,1017.28
2023-05-31T06:18:14.042Z,1017.35
2023-05-31T06:19:14.007Z,1017.29
2023-05-31T06:20:14.080Z,1017.39
2023-05-31T06:21:13.931Z,1017.39
2023-05-31T06:22:13.939Z,1017.42
2023-05-31T06:23:13.924Z,1017.40
2023-05-31T06:24:13.915Z,1017.41
2023-05-31T06:25:13.892Z,1017.41
2023-05-31T06:26:13.889Z,1017.44
2023-05-31T06:27:13.861Z,1017.39
2023-05-31T06:28:13.907Z,1017.40
2023-05-31T06:29:13.845Z,1017.44
2023-05-31T06:30:13.851Z,1017.41
2023-05-31T06:31:13.821Z,1017.44
2023-05-31T06:32:13.883Z,1017.40
2023-05-31T06:33:13.828Z,1017.38
2023-05-31T06:34:13.854Z,1017.38
2023-05-31T06:35:13.840Z,1017.40
2023-05-31T06:36:13.787Z,1017.39
2023-05-31T06:37:14.109Z,1017.43
2023-05-31T06:38:13.830Z,1017.41
2023-05-31T06:39:13.776Z,1017.43
2023-05-31T06:40:13.741Z,1017.39
2023-05-31T06:41:13.720Z,1017.36
2023-05-31T06:42:13.728Z,1017.36
2023-05-31T06:43:13.692Z,1017.33
2023-05-31T06:44:13.695Z,1017.31
2023-05-31T06:45:13.675Z,1017.30
2023-05-31T06:46:13.728Z,1017.35
2023-05-31T06:47:13.718Z,1017.32
2023-05-31T06:48:13.743Z,1017.34
2023-05-31T06:49:13.637Z,1017.29
2023-05-31T06:50:13.620Z,1017.29
2023-05-31T06:51:13.628Z,1017.29
2023-05-31T06:52:13.632Z,1017.29
2023-05-31T06:53:13.584Z,1017.27
2023-05-31T06:54:13.607Z,1017.34
2023-05-31T06:55:13.588Z,1017.33
2023-05-31T06:56:13.626Z,1017.33
2023-05-31T06:57:13.631Z,1017.36
2023-05-31T06:58:13.550Z,1017.34
2023-05-31T06:59:13.518Z,1017.34
2023-05-31T07:00:13.745Z,1017.35
2023-05-31T07:01:13.527Z,1017.28
2023-05-31T07:02:13.493Z,1017.28
2023-05-31T07:03:13.506Z,1017.29
2023-05-31T07:04:13.484Z,1017.31
2023-05-31T07:05:13.493Z,1017.30
2023-05-31T07:06:13.486Z,1017.26
2023-05-31T07:07:13.439Z,1017.27
2023-05-31T07:08:13.468Z,1017.28
2023-05-31T07:09:13.434Z,1017.31
2023-05-31T07:10:13.440Z,1017.27
2023-05-31T07:11:13.398Z,1017.28
2023-05-31T07:12:13.409Z,1017.27
2023-05-31T07:13:13.372Z,1017.29
2023-05-31T07:14:13.453Z,1017.29
2023-05-31T07:15:13.355Z,1017.26
2023-05-31T07:16:13.434Z,1017.27
2023-05-31T07:17:13.334Z,1017.30
2023-05-31T07:18:13.397Z,1017.32
2023-05-31T07:19:13.332Z,1017.30
2023-05-31T07:20:13.316Z,1017.33
2023-05-31T07:21:13.295Z,1017.27
2023-05-31T07:22:13.396Z,1017.30
2023-05-31T07:23:13.295Z,1017.24
2023-05-31T07:24:13.414Z,1017.29
2023-05-31T07:25:13.251Z,1017.27
2023-05-31T07:26:13.336Z,1017.25
2023-05-31T07:27:13.256Z,1017.30
2023-05-31T07:28:13.249Z,1017.29
2023-05-31T07:29:13.249Z,1017.27
2023-05-31T07:30:13.383Z,1017.27
2023-05-31T07:31:13.198Z,1017.28
2023-05-31T07:32:13.234Z,1017.32
2023-05-31T07:33:13.295Z,1017.25
2023-05-31T07:34:14.154Z,1017.28
2023-05-31T07:35:13.166Z,1017.30
2023-05-31T07:36:13.160Z,1017.27
2023-05-31T07:37:13.166Z,1017.29
2023-05-31T07:38:13.226Z,1017.28
2023-05-31T07:39:13.106Z,1017.28
2023-05-31T07:40:13.112Z,1017.27
2023-05-31T07:41:13.093Z,1017.26
2023-05-31T07:42:13.205Z,1017.25
2023-05-31T07:43:13.125Z,1017.23
2023-05-31T07:44:13.070Z,1017.21
2023-05-31T07:45:13.030Z,1017.23
2023-05-31T07:46:13.062Z,1017.17
2023-05-31T07:47:13.036Z,1017.21
2023-05-31T07:48:13.113Z,1017.20
2023-05-31T07:49:13.027Z,1017.19
2023-05-31T07:50:13.011Z,1017.16
2023-05-31T07:51:12.985Z,1017.16
2023-05-31T07:52:13.003Z,1017.12
2023-05-31T07:53:12.965Z,1017.15
2023-05-31T07:54:13.006Z,1017.15
2023-05-31T07:55:12.926Z,1017.18
2023-05-31T07:56:12.946Z,1017.13
2023-05-31T07:57:12.923Z,1017.17
2023-05-31T07:58:12.998Z,1017.12
2023-05-31T07:59:12.885Z,1017.11
2023-05-31T08:00:12.891Z,1017.15
2023-05-31T08:01:12.896Z,1017.12
2023-05-31T08:02:12.993Z,1017.09
2023-05-31T08:03:12.916Z,1017.10
2023-05-31T08:04:12.972Z,1017.07
2023-05-31T08:05:12.847Z,1017.04
2023-05-31T08:06:12.898Z,1017.07
2023-05-31T08:07:12.872Z,1017.07
2023-05-31T08:08:12.821Z,1017.10
2023-05-31T08:09:12.820Z,1017.11
2023-05-31T08:10:12.868Z,1017.10
2023-05-31T08:11:12.768Z,1017.06
2023-05-31T08:12:12.799Z,1017.04
2023-05-31T08:13:12.769Z,1016.99
2023-05-31T08:14:12.731Z,1017.02
2023-05-31T08:15:12.759Z,1017.04
2023-05-31T08:16:12.768Z,1017.08
2023-05-31T08:17:12.784Z,1017.02
2023-05-31T08:18:12.718Z,1017.01
2023-05-31T08:19:12.705Z,1017.00
2023-05-31T08:20:12.859Z,1016.98
2023-05-31T08:21:12.674Z,1017.00
2023-05-31T08:22:12.706Z,1017.03
2023-05-31T08:23:12.642Z,1017.07
2023-05-31T08:24:12.743Z,1017.01
2023-05-31T08:25:12.664Z,1016.97
2023-05-31T08:26:12.667Z,1016.91
2023-05-31T08:27:12.613Z,1016.94
2023-05-31T08:28:12.617Z,1016.97
2023-05-31T08:29:12.603Z,1016.93
2023-05-31T08:30:12.653Z,1016.91
2023-05-31T08:31:12.583Z,1016.89
2023-05-31T08:32:12.569Z,1016.90
2023-05-31T08:33:12.629Z,1016.87
2023-05-31T08:34:12.605Z,1016.87
2023-05-31T08:35:12.544Z,1016.87
2023-05-31T08:36:12.514Z,1016.87
2023-05-31T08:37:12.510Z,1016.77
2023-05-31T08:38:12.848Z,1016.78
2023-05-31T08:39:12.469Z,1016.78
2023-05-31T08:40:12.506Z,1016.78
2023-05-31T08:41:12.458Z,1016.74
2023-05-31T08:42:12.544Z,1016.71
2023-05-31T08:43:12.800Z,1016.76
2023-05-31T08:44:12.495Z,1016.75
2023-05-31T08:45:12.416Z,1016.72
2023-05-31T08:46:12.431Z,1016.75
2023-05-31T08:47:12.429Z,1016.75
2023-05-31T08:48:12.620Z,1016.77
2023-05-31T08:49:12.384Z,1016.72
2023-05-31T08:50:12.419Z,1016.72
2023-05-31T08:51:12.357Z,1016.65
2023-05-31T08:52:12.529Z,1016.66
2023-05-31T08:53:12.386Z,1016.63
2023-05-31T08:54:12.352Z,1016.62
2023-05-31T08:55:12.321Z,1016.62
2023-05-31T08:56:12.346Z,1016.54
2023-05-31T08:57:12.327Z,1016.61
2023-05-31T08:58:12.316Z,1016.57
2023-05-31T08:59:12.271Z,1016.62
2023-05-31T09:00:12.718Z,1016.54
2023-05-31T09:01:12.281Z,1016.54
2023-05-31T09:02:12.450Z,1016.55
2023-05-31T09:03:12.299Z,1016.49
2023-05-31T09:04:12.310Z,1016.50
2023-05-31T09:05:12.388Z,1016.48
2023-05-31T09:06:12.258Z,1016.49
2023-05-31T09:07:12.224Z,1016.44
2023-05-31T09:08:12.217Z,1016.42
2023-05-31T09:09:12.192Z,1016.39
2023-05-31T09:10:12.291Z,1016.36
2023-05-31T09:11:12.180Z,1016.37
2023-05-31T09:12:12.168Z,1016.39
2023-05-31T09:13:12.154Z,1016.38
2023-05-31T09:14:12.186Z,1016.38
2023-05-31T09:15:12.138Z,1016.41
2023-05-31T09:16:12.218Z,1016.40
2023-05-31T09:17:12.112Z,1016.37
2023-05-31T09:18:12.108Z,1016.32
2023-05-31T09:19:12.080Z,1016.34
2023-05-31T09:20:12.181Z,1016.33
2023-05-31T09:21:12.063Z,1016.32
2023-05-31T09:22:12.248Z,1016.29
2023-05-31T09:23:12.052Z,1016.25
2023-05-31T09:24:12.111Z,1016.24
2023-05-31T09:25:12.083Z,1016.15
2023-05-31T09:26:12.151Z,1016.10
2023-05-31T09:27:12.060Z,1016.11
2023-05-31T09:28:12.056Z,1016.07
2023-05-31T09:29:12.032Z,1016.03
2023-05-31T09:30:11.993Z,1016.09
2023-05-31T09:31:12.025Z,1016.02
2023-05-31T09:32:11.994Z,1015.96
2023-05-31T09:33:11.994Z,1015.96
2023-05-31T09:34:12.064Z,1015.97
2023-05-31T09:35:11.932Z,1016.01
2023-05-31T09:36:11.937Z,1016.02
2023-05-31T09:37:11.905Z,1016.00
2023-05-31T09:38:11.942Z,1016.01
2023-05-31T09:39:11.902Z,1015.92
2023-05-31T09:40:11.891Z,1015.90
2023-05-31T09:41:11.875Z,1015.85
2023-05-31T09:42:11.875Z,1015.88
2023-05-31T09:43:11.897Z,1015.87
2023-05-31T09:44:11.903Z,1015.89
2023-05-31T09:45:11.828Z,1015.85
2023-05-31T09:46:11.887Z,1015.88
2023-05-31T09:47:11.826Z,1015.83
2023-05-31T09:48:12.067Z,1015.81
2023-05-31T09:49:11.829Z,1015.83
2023-05-31T09:50:11.859Z,1015.88
2023-05-31T09:51:11.783Z,1015.78
2023-05-31T09:52:11.832Z,1015.79
2023-05-31T09:53:11.781Z,1015.79
2023-05-31T09:54:12.759Z,1015.75
2023-05-31T09:55:11.739Z,1015.79
2023-05-31T09:56:11.743Z,1015.74
2023-05-31T09:57:11.738Z,1015.73
2023-05-31T09:58:11.728Z,1015.72
2023-05-31T09:59:11.715Z,1015.74
2023-05-31T10:00:11.711Z,1015.68
2023-05-31T10:01:11.711Z,1015.68
2023-05-31T10:02:11.764Z,1015.60
2023-05-31T10:03:11.892Z,1015.64
2023-05-31T10:04:11.712Z,1015.63
2023-05-31T10:05:11.645Z,1015.62
2023-05-31T10:06:11.711Z,1015.67
2023-05-31T10:07:11.677Z,1015.59
2023-05-31T10:08:11.684Z,1015.50
2023-05-31T10:09:11.638Z,1015.54
2023-05-31T10:10:11.630Z,1015.64
2023-05-31T10:11:11.653Z,1015.59
2023-05-31T10:12:11.592Z,1015.52
2023-05-31T10:13:11.581Z,1015.47
2023-05-31T10:14:11.603Z,1015.49
2023-05-31T10:15:11.557Z,1015.44
2023-05-31T10:16:11.594Z,1015.45
2023-05-31T10:17:11.541Z,1015.47
2023-05-31T10:18:11.555Z,1015.40
2023-05-31T10:19:11.554Z,1015.39
2023-05-31T10:20:11.672Z,1015.42
2023-05-31T10:21:11.525Z,1015.43
2023-05-31T10:22:11.514Z,1015.34
2023-05-31T10:23:11.493Z,1015.32
2023-05-31T10:24:11.549Z,1015.25
2023-05-31T10:25:11.494Z,1015.35
2023-05-31T10:26:11.477Z,1015.35
2023-05-31T10:27:11.476Z,1015.34
2023-05-31T10:28:11.466Z,1015.40
2023-05-31T10:29:11.454Z,1015.37
2023-05-31T10:30:11.489Z,1015.29
2023-05-31T10:31:11.461Z,1015.28
2023-05-31T10:32:11.508Z,1015.28
2023-05-31T10:33:11.465Z,1015.34
2023-05-31T10:34:11.422Z,1015.30
2023-05-31T10:35:11.415Z,1015.29
2023-05-31T10:36:11.545Z,1015.29
2023-05-31T10:37:11.372Z,1015.24
2023-05-31T10:38:11.407Z,1015.21
2023-05-31T10:39:11.400Z,1015.17
2023-05-31T10:40:11.385Z,1015.19
2023-05-31T10:41:11.321Z,1015.16
2023-05-31T10:42:11.358Z,1015.18
2023-05-31T10:43:11.313Z,1015.12
2023-05-31T10:44:11.373Z,1015.10
2023-05-31T10:45:11.286Z,1015.07
2023-05-31T10:46:11.288Z,1015.08
2023-05-31T10:47:11.314Z,1015.00
2023-05-31T10:48:11.331Z,1015.01
2023-05-31T10:49:11.596Z,1015.10
2023-05-31T10:50:11.256Z,1015.01
2023-05-31T10:51:11.231Z,1015.01
2023-05-31T10:52:11.294Z,1014.99
2023-05-31T10:53:11.249Z,1015.03
2023-05-31T10:54:11.268Z,1014.96
2023-05-31T10:55:11.329Z,1014.94
2023-05-31T10:56:11.245Z,1014.92
2023-05-31T10:57:11.182Z,1014.96
2023-05-31T10:58:11.211Z,1014.95
2023-05-31T10:59:11.168Z,1014.98
2023-05-31T11:00:11.251Z,1014.97
2023-05-31T11:01:11.167Z,1014.97
2023-05-31T11:02:11.209Z,1014.93
2023-05-31T11:03:11.181Z,1014.89
2023-05-31T11:04:11.195Z,1014.98
2023-05-31T11:05:11.270Z,1015.03
2023-05-31T11:06:11.102Z,1014.98
2023-05-31T11:07:11.107Z,1014.92
2023-05-31T11:08:11.107Z,1014.90
2023-05-31T11:09:11.074Z,1014.90
2023-05-31T11:10:11.084Z,1014.92
2023-05-31T11:11:11.231Z,1014.91
2023-05-31T11:12:11.234Z,1014.92
2023-05-31T11:13:11.134Z,1014.91
2023-05-31T11:14:11.117Z,1014.97
2023-05-31T11:15:11.050Z,1014.97
2023-05-31T11:16:11.091Z,1014.94
2023-05-31T11:17:11.017Z,1014.92
2023-05-31T11:18:11.114Z,1014.94
2023-05-31T11:19:11.032Z,1014.92
2023-05-31T11:20:11.049Z,1014.85
2023-05-31T11:21:11.038Z,1014.87
2023-05-31T11:22:11.127Z,1014.84
2023-05-31T11:23:10.978Z,1014.82
2023-05-31T11:24:10.962Z,1014.82
2023-05-31T11:25:10.955Z,1014.85
2023-05-31T11:26:10.939Z,1014.79
2023-05-31T11:27:10.922Z,1014.78
2023-05-31T11:28:10.985Z,1014.78
2023-05-31T11:29:10.927Z,1014.82
2023-05-31T11:30:10.922Z,1014.86
2023-05-31T11:31:10.894Z,1014.85
2023-05-31T11:32:11.152Z,1014.82
2023-05-31T11:33:10.924Z,1014.83
2023-05-31T11:34:10.993Z,1014.84
2023-05-31T11:35:10.876Z,1014.84
2023-05-31T11:36:10.839Z,1014.89
2023-05-31T11:37:10.832Z,1014.78
2023-05-31T11:38:10.854Z,1014.78
2023-05-31T11:39:10.844Z,1014.81
2023-05-31T11:40:10.838Z,1014.79
2023-05-31T11:41:10.803Z,1014.79
2023-05-31T11:42:10.847Z,1014.82
2023-05-31T11:43:10.783Z,1014.84
2023-05-31T11:44:10.823Z,1014.82
2023-05-31T11:45:10.784Z,1014.79
2023-05-31T11:46:10.785Z,1014.77
2023-05-31T11:47:10.905Z,1014.69
2023-05-31T11:48:10.808Z,1014.67
2023-05-31T11:49:10.748Z,1014.70
2023-05-31T11:50:10.729Z,1014.70
2023-05-31T11:51:10.733Z,1014.68
2023-05-31T11:52:10.706Z,1014.65
2023-05-31T11:53:10.725Z,1014.61
2023-05-31T11:54:10.741Z,1014.59
2023-05-31T11:55:12.667Z,1014.62
2023-05-31T11:56:10.692Z,1014.61
2023-05-31T11:57:10.666Z,1014.59
2023-05-31T11:58:10.669Z,1014.59
2023-05-31T11:59:10.654Z,1014.56
2023-05-31T12:00:10.674Z,1014.59
2023-05-31T12:01:12.220Z,1014.54
2023-05-31T12:02:10.898Z,1014.55
2023-05-31T12:03:10.729Z,1014.51
2023-05-31T12:04:10.629Z,1014.51
2023-05-31T12:05:10.601Z,1014.48
2023-05-31T12:06:10.613Z,1014.50